sensor_id;sensor_type;location;lat;lon;timestamp;P1;durP1;ratioP1;P2;durP2;ratioP2
37284;SDS011;23172;53.550;9.964;2023-08-31T00:00:22;69.88;;;22.50;;
37284;SDS011;23172;53.550;9.964;2023-08-31T00:05:25;74.72;;;26.02;;
37284;SDS011;23172;53.550;9.964;2023-08-31T00:10:30;55.08;;;26.08;;
37284;SDS011;23172;53.550;9.964;2023-08-31T00:15:31;74.90;;;21.40;;
37284;SDS011;23172;53.550;9.964;2023-08-31T00:20:35;92.65;;;47.97;;
37284;SDS011;23172;53.550;9.964;2023-08-31T00:25:38;81.18;;;21.60;;
37284;SDS011;23172;53.550;9.964;2023-08-31T00:30:43;80.85;;;23.17;;
37284;SDS011;23172;53.550;9.964;2023-08-31T00:35:46;58.17;;;25.13;;
37284;SDS011;23172;53.550;9.964;2023-08-31T00:40:49;84.50;;;30.25;;
37284;SDS011;23172;53.550;9.964;2023-08-31T00:45:51;64.53;;;19.08;;
37284;SDS011;23172;53.550;9.964;2023-08-31T00:50:58;71.50;;;27.67;;
37284;SDS011;23172;53.550;9.964;2023-08-31T00:56:02;55.65;;;25.90;;
37284;SDS011;23172;53.550;9.964;2023-08-31T01:01:06;84.75;;;29.42;;
37284;SDS011;23172;53.550;9.964;2023-08-31T01:06:18;72.85;;;30.85;;
37284;SDS011;23172;53.550;9.964;2023-08-31T01:11:31;51.97;;;24.35;;
37284;SDS011;23172;53.550;9.964;2023-08-31T01:16:42;80.95;;;33.15;;
37284;SDS011;23172;53.550;9.964;2023-08-31T01:21:46;82.78;;;21.88;;
37284;SDS011;23172;53.550;9.964;2023-08-31T01:26:52;60.30;;;30.42;;
37284;SDS011;23172;53.550;9.964;2023-08-31T01:31:55;77.65;;;28.67;;
37284;SDS011;23172;53.550;9.964;2023-08-31T01:36:58;35.25;;;22.48;;
37284;SDS011;23172;53.550;9.964;2023-08-31T01:42:11;76.45;;;19.90;;
37284;SDS011;23172;53.550;9.964;2023-08-31T01:47:15;38.40;;;21.77;;
37284;SDS011;23172;53.550;9.964;2023-08-31T01:52:19;75.55;;;27.17;;
37284;SDS011;23172;53.550;9.964;2023-08-31T01:57:22;129.93;;;48.83;;
37284;SDS011;23172;53.550;9.964;2023-08-31T02:02:24;66.65;;;19.08;;
37284;SDS011;23172;53.550;9.964;2023-08-31T02:07:26;47.38;;;19.98;;
37284;SDS011;23172;53.550;9.964;2023-08-31T02:12:29;69.90;;;19.13;;
37284;SDS011;23172;53.550;9.964;2023-08-31T02:17:31;45.10;;;25.45;;
37284;SDS011;23172;53.550;9.964;2023-08-31T02:22:33;53.35;;;18.00;;
37284;SDS011;23172;53.550;9.964;2023-08-31T02:27:37;57.10;;;18.83;;
37284;SDS011;23172;53.550;9.964;2023-08-31T02:32:39;60.35;;;21.35;;
37284;SDS011;23172;53.550;9.964;2023-08-31T02:37:41;71.97;;;18.15;;
37284;SDS011;23172;53.550;9.964;2023-08-31T02:42:44;52.08;;;28.27;;
37284;SDS011;23172;53.550;9.964;2023-08-31T02:47:46;46.67;;;20.48;;
37284;SDS011;23172;53.550;9.964;2023-08-31T02:52:49;68.57;;;17.67;;
37284;SDS011;23172;53.550;9.964;2023-08-31T02:57:53;66.80;;;23.90;;
37284;SDS011;23172;53.550;9.964;2023-08-31T03:02:55;72.80;;;21.88;;
37284;SDS011;23172;53.550;9.964;2023-08-31T03:07:57;101.03;;;34.55;;
37284;SDS011;23172;53.550;9.964;2023-08-31T03:13:00;48.90;;;23.42;;
37284;SDS011;23172;53.550;9.964;2023-08-31T03:18:02;99.25;;;44.75;;
37284;SDS011;23172;53.550;9.964;2023-08-31T03:23:04;98.15;;;32.05;;
37284;SDS011;23172;53.550;9.964;2023-08-31T03:28:07;50.40;;;28.88;;
37284;SDS011;23172;53.550;9.964;2023-08-31T03:33:09;48.70;;;28.90;;
37284;SDS011;23172;53.550;9.964;2023-08-31T03:38:12;60.30;;;37.55;;
37284;SDS011;23172;53.550;9.964;2023-08-31T03:43:15;52.13;;;21.00;;
37284;SDS011;23172;53.550;9.964;2023-08-31T03:48:18;84.55;;;35.15;;
37284;SDS011;23172;53.550;9.964;2023-08-31T03:53:20;111.55;;;47.80;;
37284;SDS011;23172;53.550;9.964;2023-08-31T03:58:23;76.00;;;28.10;;
37284;SDS011;23172;53.550;9.964;2023-08-31T04:03:25;87.68;;;30.95;;
37284;SDS011;23172;53.550;9.964;2023-08-31T04:08:27;67.15;;;29.08;;
37284;SDS011;23172;53.550;9.964;2023-08-31T04:13:31;63.47;;;27.67;;
37284;SDS011;23172;53.550;9.964;2023-08-31T04:18:33;68.65;;;29.77;;
37284;SDS011;23172;53.550;9.964;2023-08-31T04:23:35;62.67;;;19.33;;
37284;SDS011;23172;53.550;9.964;2023-08-31T04:28:39;60.17;;;29.48;;
37284;SDS011;23172;53.550;9.964;2023-08-31T04:33:41;92.03;;;41.05;;
37284;SDS011;23172;53.550;9.964;2023-08-31T04:38:43;147.57;;;55.22;;
37284;SDS011;23172;53.550;9.964;2023-08-31T04:43:46;72.40;;;24.35;;
37284;SDS011;23172;53.550;9.964;2023-08-31T04:48:49;66.95;;;39.58;;
37284;SDS011;23172;53.550;9.964;2023-08-31T04:53:51;100.82;;;30.77;;
37284;SDS011;23172;53.550;9.964;2023-08-31T04:58:54;93.53;;;36.75;;
37284;SDS011;23172;53.550;9.964;2023-08-31T05:03:56;73.57;;;26.58;;
37284;SDS011;23172;53.550;9.964;2023-08-31T05:08:59;62.92;;;26.20;;
37284;SDS011;23172;53.550;9.964;2023-08-31T05:14:02;81.18;;;34.80;;
37284;SDS011;23172;53.550;9.964;2023-08-31T05:19:04;155.18;;;60.70;;
37284;SDS011;23172;53.550;9.964;2023-08-31T05:24:06;66.32;;;28.77;;
37284;SDS011;23172;53.550;9.964;2023-08-31T05:29:09;68.40;;;28.80;;
37284;SDS011;23172;53.550;9.964;2023-08-31T05:34:13;48.38;;;26.33;;
37284;SDS011;23172;53.550;9.964;2023-08-31T05:39:17;92.78;;;40.00;;
37284;SDS011;23172;53.550;9.964;2023-08-31T05:44:20;67.25;;;29.52;;
37284;SDS011;23172;53.550;9.964;2023-08-31T05:49:23;79.50;;;32.13;;
37284;SDS011;23172;53.550;9.964;2023-08-31T05:54:25;60.67;;;32.55;;
37284;SDS011;23172;53.550;9.964;2023-08-31T05:59:28;70.35;;;29.77;;
37284;SDS011;23172;53.550;9.964;2023-08-31T06:04:30;60.08;;;35.47;;
37284;SDS011;23172;53.550;9.964;2023-08-31T06:09:32;85.40;;;28.75;;
37284;SDS011;23172;53.550;9.964;2023-08-31T06:14:35;63.22;;;36.55;;
37284;SDS011;23172;53.550;9.964;2023-08-31T06:19:37;67.82;;;40.33;;
37284;SDS011;23172;53.550;9.964;2023-08-31T06:24:39;65.55;;;31.80;;
37284;SDS011;23172;53.550;9.964;2023-08-31T06:29:43;72.72;;;43.03;;
37284;SDS011;23172;53.550;9.964;2023-08-31T06:34:45;97.75;;;27.30;;
37284;SDS011;23172;53.550;9.964;2023-08-31T06:39:47;108.18;;;69.75;;
37284;SDS011;23172;53.550;9.964;2023-08-31T06:44:51;115.07;;;61.22;;
37284;SDS011;23172;53.550;9.964;2023-08-31T06:49:53;73.72;;;31.02;;
37284;SDS011;23172;53.550;9.964;2023-08-31T06:54:55;82.07;;;44.20;;
37284;SDS011;23172;53.550;9.964;2023-08-31T06:59:59;72.13;;;39.60;;
37284;SDS011;23172;53.550;9.964;2023-08-31T07:05:03;92.43;;;48.92;;
37284;SDS011;23172;53.550;9.964;2023-08-31T07:10:06;132.35;;;53.83;;
37284;SDS011;23172;53.550;9.964;2023-08-31T07:15:10;68.38;;;47.05;;
37284;SDS011;23172;53.550;9.964;2023-08-31T07:20:12;126.40;;;52.30;;
37284;SDS011;23172;53.550;9.964;2023-08-31T07:25:14;175.18;;;71.32;;
37284;SDS011;23172;53.550;9.964;2023-08-31T07:30:17;151.65;;;71.13;;
37284;SDS011;23172;53.550;9.964;2023-08-31T07:35:19;146.82;;;82.00;;
37284;SDS011;23172;53.550;9.964;2023-08-31T07:40:21;207.05;;;117.93;;
37284;SDS011;23172;53.550;9.964;2023-08-31T07:45:24;756.40;;;350.38;;
37284;SDS011;23172;53.550;9.964;2023-08-31T07:50:26;414.23;;;243.93;;
37284;SDS011;23172;53.550;9.964;2023-08-31T07:55:28;485.95;;;310.45;;
37284;SDS011;23172;53.550;9.964;2023-08-31T08:00:31;760.78;;;604.10;;
37284;SDS011;23172;53.550;9.964;2023-08-31T08:05:33;852.45;;;581.53;;
37284;SDS011;23172;53.550;9.964;2023-08-31T08:10:35;1369.28;;;711.72;;
37284;SDS011;23172;53.550;9.964;2023-08-31T08:15:38;1999.90;;;735.42;;
37284;SDS011;23172;53.550;9.964;2023-08-31T08:20:40;1579.32;;;323.25;;
37284;SDS011;23172;53.550;9.964;2023-08-31T08:25:42;1999.90;;;999.90;;
37284;SDS011;23172;53.550;9.964;2023-08-31T08:30:46;966.03;;;207.75;;
37284;SDS011;23172;53.550;9.964;2023-08-31T08:35:47;1615.15;;;500.42;;
37284;SDS011;23172;53.550;9.964;2023-08-31T08:40:49;1999.90;;;999.90;;
37284;SDS011;23172;53.550;9.964;2023-08-31T08:45:52;1999.90;;;999.90;;
37284;SDS011;23172;53.550;9.964;2023-08-31T08:50:59;1999.90;;;999.90;;
37284;SDS011;23172;53.550;9.964;2023-08-31T08:56:03;1999.90;;;999.90;;
37284;SDS011;23172;53.550;9.964;2023-08-31T09:01:06;1999.90;;;999.90;;
37284;SDS011;23172;53.550;9.964;2023-08-31T09:06:08;1669.63;;;768.67;;
37284;SDS011;23172;53.550;9.964;2023-08-31T09:11:19;1999.90;;;999.90;;
37284;SDS011;23172;53.550;9.964;2023-08-31T09:16:27;1999.90;;;999.90;;
37284;SDS011;23172;53.550;9.964;2023-08-31T09:21:35;1999.90;;;999.90;;
37284;SDS011;23172;53.550;9.964;2023-08-31T09:26:38;1999.90;;;999.90;;
37284;SDS011;23172;53.550;9.964;2023-08-31T09:31:43;1999.90;;;999.90;;
37284;SDS011;23172;53.550;9.964;2023-08-31T09:36:45;1999.90;;;999.90;;
37284;SDS011;23172;53.550;9.964;2023-08-31T09:41:53;1999.90;;;999.90;;
37284;SDS011;23172;53.550;9.964;2023-08-31T09:46:57;1999.90;;;999.90;;
37284;SDS011;23172;53.550;9.964;2023-08-31T09:52:00;1999.90;;;999.90;;
37284;SDS011;23172;53.550;9.964;2023-08-31T09:57:06;1999.90;;;999.90;;
37284;SDS011;23172;53.550;9.964;2023-08-31T10:02:09;1999.90;;;999.90;;
37284;SDS011;23172;53.550;9.964;2023-08-31T10:07:12;1999.90;;;999.90;;
37284;SDS011;23172;53.550;9.964;2023-08-31T10:12:14;1999.90;;;999.90;;
37284;SDS011;23172;53.550;9.964;2023-08-31T10:17:19;1999.90;;;999.90;;
37284;SDS011;23172;53.550;9.964;2023-08-31T10:22:22;1999.90;;;999.90;;
37284;SDS011;23172;53.550;9.964;2023-08-31T10:27:24;1999.90;;;999.90;;
37284;SDS011;23172;53.550;9.964;2023-08-31T10:32:27;1999.90;;;999.90;;
37284;SDS011;23172;53.550;9.964;2023-08-31T10:37:29;1999.90;;;999.90;;
37284;SDS011;23172;53.550;9.964;2023-08-31T10:42:31;1999.90;;;999.90;;
37284;SDS011;23172;53.550;9.964;2023-08-31T10:47:38;1999.90;;;999.90;;
37284;SDS011;23172;53.550;9.964;2023-08-31T10:52:42;1999.90;;;999.90;;
37284;SDS011;23172;53.550;9.964;2023-08-31T10:57:45;1999.90;;;999.90;;
37284;SDS011;23172;53.550;9.964;2023-08-31T11:02:49;1999.90;;;999.90;;
37284;SDS011;23172;53.550;9.964;2023-08-31T11:07:51;1999.90;;;999.90;;
37284;SDS011;23172;53.550;9.964;2023-08-31T11:12:53;1999.90;;;999.90;;
37284;SDS011;23172;53.550;9.964;2023-08-31T11:17:58;1999.90;;;999.90;;
37284;SDS011;23172;53.550;9.964;2023-08-31T11:23:00;1999.90;;;999.90;;
37284;SDS011;23172;53.550;9.964;2023-08-31T11:28:04;1999.90;;;999.90;;
37284;SDS011;23172;53.550;9.964;2023-08-31T11:33:09;1999.90;;;999.90;;
37284;SDS011;23172;53.550;9.964;2023-08-31T11:38:13;1999.90;;;999.90;;
37284;SDS011;23172;53.550;9.964;2023-08-31T11:43:15;1999.90;;;999.90;;
37284;SDS011;23172;53.550;9.964;2023-08-31T11:48:19;1999.90;;;999.90;;
37284;SDS011;23172;53.550;9.964;2023-08-31T11:53:22;1999.90;;;999.90;;
37284;SDS011;23172;53.550;9.964;2023-08-31T11:58:25;1999.90;;;999.90;;
37284;SDS011;23172;53.550;9.964;2023-08-31T12:03:36;1999.90;;;999.90;;
37284;SDS011;23172;53.550;9.964;2023-08-31T12:08:43;1999.90;;;999.90;;
37284;SDS011;23172;53.550;9.964;2023-08-31T12:13:45;1999.90;;;999.90;;
37284;SDS011;23172;53.550;9.964;2023-08-31T12:18:48;1999.90;;;999.90;;
37284;SDS011;23172;53.550;9.964;2023-08-31T12:23:51;1999.90;;;999.90;;
37284;SDS011;23172;53.550;9.964;2023-08-31T12:28:53;1999.90;;;999.90;;
37284;SDS011;23172;53.550;9.964;2023-08-31T12:33:57;1999.90;;;999.90;;
37284;SDS011;23172;53.550;9.964;2023-08-31T12:38:59;1999.90;;;999.90;;
37284;SDS011;23172;53.550;9.964;2023-08-31T12:44:06;1999.90;;;999.90;;
37284;SDS011;23172;53.550;9.964;2023-08-31T12:49:10;1999.90;;;999.90;;
37284;SDS011;23172;53.550;9.964;2023-08-31T12:54:12;1999.90;;;999.90;;
37284;SDS011;23172;53.550;9.964;2023-08-31T12:59:14;1999.90;;;999.90;;
37284;SDS011;23172;53.550;9.964;2023-08-31T13:04:17;1999.90;;;999.90;;
37284;SDS011;23172;53.550;9.964;2023-08-31T13:09:19;1999.90;;;999.90;;
37284;SDS011;23172;53.550;9.964;2023-08-31T13:14:21;1999.90;;;999.90;;
37284;SDS011;23172;53.550;9.964;2023-08-31T13:19:24;1999.90;;;999.90;;
37284;SDS011;23172;53.550;9.964;2023-08-31T13:24:26;1999.90;;;999.90;;
37284;SDS011;23172;53.550;9.964;2023-08-31T13:29:28;1999.90;;;999.90;;
37284;SDS011;23172;53.550;9.964;2023-08-31T13:34:33;1999.90;;;999.90;;
37284;SDS011;23172;53.550;9.964;2023-08-31T13:39:37;1999.90;;;999.90;;
37284;SDS011;23172;53.550;9.964;2023-08-31T13:44:40;1999.90;;;999.90;;
37284;SDS011;23172;53.550;9.964;2023-08-31T13:49:43;1999.90;;;999.90;;
37284;SDS011;23172;53.550;9.964;2023-08-31T13:54:45;1999.90;;;999.90;;
37284;SDS011;23172;53.550;9.964;2023-08-31T13:59:47;1999.90;;;999.90;;
37284;SDS011;23172;53.550;9.964;2023-08-31T14:04:50;1999.90;;;999.90;;
37284;SDS011;23172;53.550;9.964;2023-08-31T14:09:52;1999.90;;;999.90;;
37284;SDS011;23172;53.550;9.964;2023-08-31T14:14:54;1999.90;;;999.90;;
37284;SDS011;23172;53.550;9.964;2023-08-31T14:19:58;1999.90;;;999.90;;
37284;SDS011;23172;53.550;9.964;2023-08-31T14:25:00;1999.90;;;999.90;;
37284;SDS011;23172;53.550;9.964;2023-08-31T14:30:04;1999.90;;;999.90;;
37284;SDS011;23172;53.550;9.964;2023-08-31T14:35:08;1999.90;;;999.90;;
37284;SDS011;23172;53.550;9.964;2023-08-31T14:40:10;1999.90;;;999.90;;
37284;SDS011;23172;53.550;9.964;2023-08-31T14:45:14;1999.90;;;999.90;;
37284;SDS011;23172;53.550;9.964;2023-08-31T14:50:17;1999.90;;;999.90;;
37284;SDS011;23172;53.550;9.964;2023-08-31T14:55:20;1999.90;;;999.90;;
37284;SDS011;23172;53.550;9.964;2023-08-31T15:00:22;1999.90;;;999.90;;
37284;SDS011;23172;53.550;9.964;2023-08-31T15:05:26;1999.90;;;999.90;;
37284;SDS011;23172;53.550;9.964;2023-08-31T15:10:31;1999.90;;;999.90;;
37284;SDS011;23172;53.550;9.964;2023-08-31T15:15:33;1999.90;;;999.90;;
37284;SDS011;23172;53.550;9.964;2023-08-31T15:20:36;1999.90;;;999.90;;
37284;SDS011;23172;53.550;9.964;2023-08-31T15:25:42;1999.90;;;999.90;;
37284;SDS011;23172;53.550;9.964;2023-08-31T15:30:43;1999.90;;;999.90;;
37284;SDS011;23172;53.550;9.964;2023-08-31T15:35:47;1999.90;;;999.90;;
37284;SDS011;23172;53.550;9.964;2023-08-31T15:40:49;1999.90;;;999.90;;
37284;SDS011;23172;53.550;9.964;2023-08-31T15:45:51;1999.90;;;999.90;;
37284;SDS011;23172;53.550;9.964;2023-08-31T15:50:55;1999.90;;;999.90;;
37284;SDS011;23172;53.550;9.964;2023-08-31T15:55:57;1999.90;;;999.90;;
37284;SDS011;23172;53.550;9.964;2023-08-31T16:00:59;1999.90;;;999.90;;
37284;SDS011;23172;53.550;9.964;2023-08-31T16:06:05;1999.90;;;999.90;;
37284;SDS011;23172;53.550;9.964;2023-08-31T16:11:08;1999.90;;;999.90;;
37284;SDS011;23172;53.550;9.964;2023-08-31T16:16:10;1999.90;;;999.90;;
37284;SDS011;23172;53.550;9.964;2023-08-31T16:21:13;1999.90;;;999.90;;
37284;SDS011;23172;53.550;9.964;2023-08-31T16:26:15;1999.90;;;999.90;;
37284;SDS011;23172;53.550;9.964;2023-08-31T16:31:16;1999.90;;;999.90;;
37284;SDS011;23172;53.550;9.964;2023-08-31T16:36:20;1999.90;;;999.90;;
37284;SDS011;23172;53.550;9.964;2023-08-31T16:41:22;1999.90;;;999.90;;
37284;SDS011;23172;53.550;9.964;2023-08-31T16:46:23;1999.90;;;999.90;;
37284;SDS011;23172;53.550;9.964;2023-08-31T16:51:27;1999.90;;;999.90;;
37284;SDS011;23172;53.550;9.964;2023-08-31T16:56:28;1999.90;;;999.90;;
37284;SDS011;23172;53.550;9.964;2023-08-31T17:01:30;1999.90;;;999.90;;
37284;SDS011;23172;53.550;9.964;2023-08-31T17:06:34;1999.90;;;999.90;;
37284;SDS011;23172;53.550;9.964;2023-08-31T17:11:36;1999.90;;;999.90;;
37284;SDS011;23172;53.550;9.964;2023-08-31T17:16:38;1999.90;;;999.90;;
37284;SDS011;23172;53.550;9.964;2023-08-31T17:21:41;1999.90;;;999.90;;
37284;SDS011;23172;53.550;9.964;2023-08-31T17:26:43;1999.90;;;999.90;;
37284;SDS011;23172;53.550;9.964;2023-08-31T17:31:45;1999.90;;;999.90;;
37284;SDS011;23172;53.550;9.964;2023-08-31T17:36:48;1018.85;;;189.55;;
37284;SDS011;23172;53.550;9.964;2023-08-31T17:41:50;1290.07;;;380.63;;
37284;SDS011;23172;53.550;9.964;2023-08-31T17:46:53;1715.13;;;507.33;;
37284;SDS011;23172;53.550;9.964;2023-08-31T17:51:56;1981.68;;;565.50;;
37284;SDS011;23172;53.550;9.964;2023-08-31T17:56:58;1999.90;;;929.47;;
37284;SDS011;23172;53.550;9.964;2023-08-31T18:02:00;1490.93;;;786.75;;
37284;SDS011;23172;53.550;9.964;2023-08-31T18:07:04;1936.55;;;935.58;;
37284;SDS011;23172;53.550;9.964;2023-08-31T18:12:07;1391.68;;;853.95;;
37284;SDS011;23172;53.550;9.964;2023-08-31T18:17:10;1999.90;;;879.53;;
37284;SDS011;23172;53.550;9.964;2023-08-31T18:22:13;1238.00;;;716.47;;
37284;SDS011;23172;53.550;9.964;2023-08-31T18:27:15;1483.78;;;918.38;;
37284;SDS011;23172;53.550;9.964;2023-08-31T18:32:18;769.22;;;652.95;;
37284;SDS011;23172;53.550;9.964;2023-08-31T18:37:21;676.70;;;606.63;;
37284;SDS011;23172;53.550;9.964;2023-08-31T18:42:23;341.35;;;267.55;;
37284;SDS011;23172;53.550;9.964;2023-08-31T18:47:27;326.48;;;228.02;;
37284;SDS011;23172;53.550;9.964;2023-08-31T18:52:30;301.42;;;268.70;;
37284;SDS011;23172;53.550;9.964;2023-08-31T18:57:32;165.30;;;98.45;;
37284;SDS011;23172;53.550;9.964;2023-08-31T19:02:34;163.40;;;133.55;;
37284;SDS011;23172;53.550;9.964;2023-08-31T19:07:37;200.27;;;135.02;;
37284;SDS011;23172;53.550;9.964;2023-08-31T19:12:40;170.05;;;93.97;;
37284;SDS011;23172;53.550;9.964;2023-08-31T19:17:43;123.82;;;89.68;;
37284;SDS011;23172;53.550;9.964;2023-08-31T19:22:47;127.47;;;51.53;;
37284;SDS011;23172;53.550;9.964;2023-08-31T19:27:49;138.73;;;68.53;;
37284;SDS011;23172;53.550;9.964;2023-08-31T19:32:50;122.22;;;51.50;;
37284;SDS011;23172;53.550;9.964;2023-08-31T19:37:53;88.80;;;45.78;;
37284;SDS011;23172;53.550;9.964;2023-08-31T19:42:56;93.38;;;47.97;;
37284;SDS011;23172;53.550;9.964;2023-08-31T19:47:57;128.00;;;36.97;;
37284;SDS011;23172;53.550;9.964;2023-08-31T19:53:01;86.32;;;41.67;;
37284;SDS011;23172;53.550;9.964;2023-08-31T19:58:03;104.40;;;42.45;;
37284;SDS011;23172;53.550;9.964;2023-08-31T20:03:05;123.60;;;42.58;;
37284;SDS011;23172;53.550;9.964;2023-08-31T20:08:09;96.78;;;47.85;;
37284;SDS011;23172;53.550;9.964;2023-08-31T20:13:11;103.55;;;41.75;;
37284;SDS011;23172;53.550;9.964;2023-08-31T20:18:13;92.07;;;46.67;;
37284;SDS011;23172;53.550;9.964;2023-08-31T20:23:16;96.70;;;39.90;;
37284;SDS011;23172;53.550;9.964;2023-08-31T20:28:18;148.98;;;44.17;;
37284;SDS011;23172;53.550;9.964;2023-08-31T20:33:20;102.50;;;38.67;;
37284;SDS011;23172;53.550;9.964;2023-08-31T20:38:23;97.70;;;38.38;;
37284;SDS011;23172;53.550;9.964;2023-08-31T20:43:25;135.02;;;46.42;;
37284;SDS011;23172;53.550;9.964;2023-08-31T20:48:27;120.10;;;44.33;;
37284;SDS011;23172;53.550;9.964;2023-08-31T20:53:32;103.10;;;38.95;;
37284;SDS011;23172;53.550;9.964;2023-08-31T20:58:34;101.90;;;39.13;;
37284;SDS011;23172;53.550;9.964;2023-08-31T21:03:37;107.47;;;44.97;;
37284;SDS011;23172;53.550;9.964;2023-08-31T21:08:41;111.60;;;63.50;;
37284;SDS011;23172;53.550;9.964;2023-08-31T21:13:43;115.45;;;85.30;;
37284;SDS011;23172;53.550;9.964;2023-08-31T21:18:45;119.38;;;59.85;;
37284;SDS011;23172;53.550;9.964;2023-08-31T21:23:48;157.07;;;92.82;;
37284;SDS011;23172;53.550;9.964;2023-08-31T21:28:50;170.98;;;109.38;;
37284;SDS011;23172;53.550;9.964;2023-08-31T21:33:52;108.40;;;56.20;;
37284;SDS011;23172;53.550;9.964;2023-08-31T21:38:55;130.27;;;45.05;;
37284;SDS011;23172;53.550;9.964;2023-08-31T21:43:59;80.32;;;40.05;;
37284;SDS011;23172;53.550;9.964;2023-08-31T21:49:00;96.88;;;47.92;;
37284;SDS011;23172;53.550;9.964;2023-08-31T21:54:04;109.40;;;49.95;;
37284;SDS011;23172;53.550;9.964;2023-08-31T21:59:06;146.07;;;69.63;;
37284;SDS011;23172;53.550;9.964;2023-08-31T22:04:08;112.95;;;27.60;;
37284;SDS011;23172;53.550;9.964;2023-08-31T22:09:12;90.30;;;35.03;;
37284;SDS011;23172;53.550;9.964;2023-08-31T22:14:14;78.20;;;28.50;;
37284;SDS011;23172;53.550;9.964;2023-08-31T22:19:18;89.45;;;32.47;;
37284;SDS011;23172;53.550;9.964;2023-08-31T22:24:22;98.03;;;31.85;;
37284;SDS011;23172;53.550;9.964;2023-08-31T22:29:24;78.93;;;28.92;;
37284;SDS011;23172;53.550;9.964;2023-08-31T22:34:26;58.97;;;25.40;;
37284;SDS011;23172;53.550;9.964;2023-08-31T22:39:31;51.92;;;27.10;;
37284;SDS011;23172;53.550;9.964;2023-08-31T22:44:32;65.85;;;27.35;;
37284;SDS011;23172;53.550;9.964;2023-08-31T22:49:34;43.58;;;19.70;;
37284;SDS011;23172;53.550;9.964;2023-08-31T22:54:37;46.15;;;19.85;;
37284;SDS011;23172;53.550;9.964;2023-08-31T22:59:40;29.60;;;17.42;;
37284;SDS011;23172;53.550;9.964;2023-08-31T23:04:42;66.82;;;17.33;;
37284;SDS011;23172;53.550;9.964;2023-08-31T23:09:45;37.33;;;16.23;;
37284;SDS011;23172;53.550;9.964;2023-08-31T23:14:47;50.58;;;17.20;;
37284;SDS011;23172;53.550;9.964;2023-08-31T23:19:49;57.53;;;18.95;;
37284;SDS011;23172;53.550;9.964;2023-08-31T23:24:53;59.67;;;23.65;;
37284;SDS011;23172;53.550;9.964;2023-08-31T23:29:55;97.18;;;18.73;;
37284;SDS011;23172;53.550;9.964;2023-08-31T23:34:57;42.88;;;13.15;;
37284;SDS011;23172;53.550;9.964;2023-08-31T23:40:00;49.25;;;17.02;;
37284;SDS011;23172;53.550;9.964;2023-08-31T23:45:05;46.53;;;15.57;;
37284;SDS011;23172;53.550;9.964;2023-08-31T23:50:08;46.95;;;16.17;;
37284;SDS011;23172;53.550;9.964;2023-08-31T23:55:12;48.13;;;17.92;;
